createdAt,value
2019-01-09T00:00:23.043Z,100930.81
2019-01-09T00:01:04.593Z,100928.38
2019-01-09T00:01:43.211Z,100932.42
2019-01-09T00:02:20.931Z,100930.25
2019-01-09T00:02:57.825Z,100930.25
2019-01-09T00:03:35.059Z,100938.34
2019-01-09T00:04:11.449Z,100931.06
2019-01-09T00:04:48.825Z,100935.64
2019-01-09T00:05:28.385Z,100933.47
2019-01-09T00:06:04.059Z,100931.30
2019-01-09T00:06:41.404Z,100932.37
2019-01-09T00:07:17.901Z,100944.48
2019-01-09T00:07:54.640Z,100937.49
2019-01-09T00:08:31.723Z,100940.45
2019-01-09T00:09:10.124Z,100936.13
2019-01-09T00:09:47.766Z,100943.39
2019-01-09T00:10:25.863Z,100943.91
2019-01-09T00:11:03.818Z,100943.35
2019-01-09T00:11:43.417Z,100948.46
2019-01-09T00:12:21.264Z,100934.73
2019-01-09T00:13:00.376Z,100948.97
2019-01-09T00:13:37.156Z,100954.34
2019-01-09T00:14:15.448Z,100948.66
2019-01-09T00:14:51.851Z,100951.88
2019-01-09T00:15:28.327Z,100954.59
2019-01-09T00:16:04.791Z,100952.70
2019-01-09T00:16:43.509Z,100956.18
2019-01-09T00:17:21.070Z,100951.87
2019-01-09T00:17:57.346Z,100951.56
2019-01-09T00:18:35.974Z,100942.69
2019-01-09T00:19:13.564Z,100951.58
2019-01-09T00:19:52.315Z,100955.03
2019-01-09T00:20:31.792Z,100958.77
2019-01-09T00:21:10.837Z,100958.23
2019-01-09T00:21:47.265Z,100958.23
2019-01-09T00:22:26.994Z,100951.75
2019-01-09T00:23:04.228Z,100960.61
2019-01-09T00:23:40.575Z,100949.55
2019-01-09T00:24:16.932Z,100949.55
2019-01-09T00:24:54.691Z,100957.31
2019-01-09T00:25:32.095Z,100950.56
2019-01-09T00:26:08.523Z,100950.80
2019-01-09T00:26:45.850Z,100948.65
2019-01-09T00:27:22.279Z,100953.20
2019-01-09T00:27:58.866Z,100956.67
2019-01-09T00:28:35.109Z,100955.84
2019-01-09T00:29:15.265Z,100953.66
2019-01-09T00:29:52.283Z,100953.66
2019-01-09T00:30:28.709Z,100957.09
2019-01-09T00:31:05.017Z,100958.67
2019-01-09T00:31:41.542Z,100958.38
2019-01-09T00:32:17.912Z,100958.38
2019-01-09T00:32:54.656Z,100961.58
2019-01-09T00:33:31.193Z,100954.86
2019-01-09T00:34:07.635Z,100954.86
2019-01-09T00:34:44.032Z,100963.67
2019-01-09T00:35:23.038Z,100963.67
2019-01-09T00:35:59.366Z,100951.27
2019-01-09T00:36:36.005Z,100956.34
2019-01-09T00:37:13.803Z,100956.34
2019-01-09T00:37:50.033Z,100958.19
2019-01-09T00:38:26.763Z,100958.19
2019-01-09T00:39:04.467Z,100966.48
2019-01-09T00:39:40.928Z,100966.48
2019-01-09T00:40:18.026Z,100961.86
2019-01-09T00:40:54.706Z,100971.77
2019-01-09T00:41:31.102Z,100971.77
2019-01-09T00:42:07.665Z,100962.56
2019-01-09T00:42:44.260Z,100962.56
2019-01-09T00:43:21.094Z,100973.85
2019-01-09T00:43:58.063Z,100973.30
2019-01-09T00:44:34.396Z,100971.34
2019-01-09T00:45:11.108Z,100971.34
2019-01-09T00:45:47.581Z,100961.56
2019-01-09T00:46:24.431Z,100964.26
2019-01-09T00:47:00.779Z,100970.39
2019-01-09T00:47:37.479Z,100974.12
2019-01-09T00:48:14.517Z,100972.73
2019-01-09T00:48:50.866Z,100972.73
2019-01-09T00:49:27.682Z,100972.73
2019-01-09T00:50:04.109Z,100973.25
2019-01-09T00:50:41.222Z,100975.59
2019-01-09T00:51:17.640Z,100975.59
2019-01-09T00:52:00.697Z,100978.00
2019-01-09T00:52:38.015Z,100976.65
2019-01-09T00:53:15.100Z,100976.61
2019-01-09T00:53:51.490Z,100978.77
2019-01-09T00:54:27.780Z,100965.79
2019-01-09T00:55:04.329Z,100965.79
2019-01-09T00:55:40.783Z,100969.27
2019-01-09T00:56:17.195Z,100982.92
2019-01-09T00:56:53.689Z,100982.34
2019-01-09T00:57:30.091Z,100985.26
2019-01-09T00:58:06.974Z,100981.97
2019-01-09T00:58:43.600Z,100983.65
2019-01-09T00:59:20.091Z,100985.52
2019-01-09T00:59:56.883Z,100985.52
2019-01-09T01:00:34.067Z,100981.97
2019-01-09T01:01:11.279Z,100989.52
2019-01-09T01:01:55.488Z,100986.27
2019-01-09T01:03:21.433Z,100987.61
2019-01-09T01:04:44.850Z,100983.81
2019-01-09T01:05:53.212Z,100978.15
2019-01-09T01:07:04.401Z,100994.26
2019-01-09T01:08:23.185Z,100993.63
2019-01-09T01:09:42.347Z,100987.71
2019-01-09T01:11:01.568Z,100980.14
2019-01-09T01:12:44.205Z,100980.14
2019-01-09T01:13:57.881Z,100981.96
2019-01-09T01:15:11.239Z,100981.96
2019-01-09T01:16:35.997Z,100993.88
2019-01-09T01:17:38.717Z,100998.40
2019-01-09T01:19:00.411Z,100982.51
2019-01-09T01:20:12.638Z,101001.11
2019-01-09T01:21:06.101Z,100996.80
2019-01-09T01:21:48.772Z,101000.26
2019-01-09T01:23:08.406Z,101003.22
2019-01-09T01:24:24.203Z,100992.91
2019-01-09T01:25:33.882Z,100989.98
2019-01-09T01:26:46.767Z,100994.00
2019-01-09T01:27:57.478Z,100997.09
2019-01-09T01:29:14.767Z,100997.09
2019-01-09T01:30:15.978Z,100992.39
2019-01-09T01:31:29.395Z,100996.63
2019-01-09T01:32:35.854Z,100991.00
2019-01-09T01:33:28.741Z,100994.77
2019-01-09T01:34:53.405Z,100996.63
2019-01-09T01:36:08.659Z,100995.27
2019-01-09T01:37:20.984Z,100987.62
2019-01-09T01:38:26.306Z,100991.88
2019-01-09T01:39:37.960Z,100991.53
2019-01-09T01:40:54.723Z,100990.94
2019-01-09T01:42:17.893Z,100985.73
2019-01-09T01:43:33.818Z,100989.59
2019-01-09T01:44:24.251Z,100983.58
2019-01-09T01:45:38.496Z,100980.11
2019-01-09T01:46:50.154Z,100988.12
2019-01-09T01:48:05.216Z,100991.09
2019-01-09T01:49:00.225Z,100986.17
2019-01-09T01:50:07.498Z,100993.44
2019-01-09T01:51:08.284Z,100996.09
2019-01-09T01:52:39.814Z,100989.83
2019-01-09T01:53:57.593Z,100986.02
2019-01-09T01:55:15.324Z,100983.91
2019-01-09T01:56:26.306Z,100986.11
2019-01-09T01:57:47.940Z,100987.58
2019-01-09T01:59:04.193Z,100981.14
2019-01-09T01:59:55.322Z,100980.98
2019-01-09T02:00:39.584Z,100981.14
2019-01-09T02:02:14.409Z,100980.91
2019-01-09T02:03:25.841Z,100972.23
2019-01-09T02:05:04.649Z,100968.81
2019-01-09T02:06:13.731Z,100961.80
2019-01-09T02:07:20.523Z,100955.54
2019-01-09T02:08:18.163Z,100962.00
2019-01-09T02:09:41.355Z,100948.48
2019-01-09T02:11:07.636Z,100958.20
2019-01-09T02:12:04.191Z,100956.34
2019-01-09T02:13:04.753Z,100940.70
2019-01-09T02:13:52.672Z,100940.70
2019-01-09T02:15:16.939Z,100939.30
2019-01-09T02:16:36.541Z,100943.32
2019-01-09T02:17:48.864Z,100943.32
2019-01-09T02:18:36.117Z,100942.17
2019-01-09T02:19:24.165Z,100947.12
2019-01-09T02:20:23.217Z,100941.03
2019-01-09T02:22:00.409Z,100937.74
2019-01-09T02:23:21.741Z,100931.78
2019-01-09T02:24:23.966Z,100935.71
2019-01-09T02:25:23.488Z,100934.55
2019-01-09T02:26:27.300Z,100920.52
2019-01-09T02:27:29.137Z,100933.37
2019-01-09T02:28:51.357Z,100934.12
2019-01-09T02:30:09.861Z,100928.71
2019-01-09T02:31:32.050Z,100925.37
2019-01-09T02:32:34.731Z,100925.86
2019-01-09T02:33:11.074Z,100924.95
2019-01-09T02:33:47.324Z,100914.69
2019-01-09T02:34:24.018Z,100916.45
2019-01-09T02:35:00.339Z,100919.11
2019-01-09T02:35:36.739Z,100918.30
2019-01-09T02:36:13.924Z,100915.02
2019-01-09T02:36:50.261Z,100920.33
2019-01-09T02:37:27.232Z,100920.27
2019-01-09T02:38:04.420Z,100918.58
2019-01-09T02:38:40.672Z,100916.62
2019-01-09T02:39:17.052Z,100918.67
2019-01-09T02:39:54.489Z,100916.66
2019-01-09T02:40:32.195Z,100912.33
2019-01-09T02:41:09.108Z,100910.67
2019-01-09T02:41:45.404Z,100911.55
2019-01-09T02:42:22.394Z,100903.91
2019-01-09T02:42:58.809Z,100907.19
2019-01-09T02:43:35.485Z,100905.83
2019-01-09T02:44:11.731Z,100905.31
2019-01-09T02:44:48.060Z,100901.52
2019-01-09T02:45:24.754Z,100901.27
2019-01-09T02:46:01.123Z,100903.95
2019-01-09T02:46:37.879Z,100903.98
2019-01-09T02:47:14.914Z,100904.23
2019-01-09T02:47:51.992Z,100904.28
2019-01-09T02:48:28.427Z,100906.94
2019-01-09T02:49:06.331Z,100906.69
2019-01-09T02:49:42.546Z,100898.73
2019-01-09T02:50:18.975Z,100902.19
2019-01-09T02:50:55.857Z,100900.48
2019-01-09T02:51:33.607Z,100899.73
2019-01-09T02:52:09.949Z,100893.46
2019-01-09T02:52:46.729Z,100897.47
2019-01-09T02:53:23.089Z,100896.42
2019-01-09T02:54:00.873Z,100892.30
2019-01-09T02:54:37.449Z,100896.61
2019-01-09T02:55:14.533Z,100889.64
2019-01-09T02:55:50.766Z,100893.46
2019-01-09T02:56:26.964Z,100896.42
2019-01-09T02:57:04.170Z,100892.16
2019-01-09T02:57:40.409Z,100891.36
2019-01-09T02:58:17.643Z,100896.83
2019-01-09T02:58:55.263Z,100896.52
2019-01-09T02:59:32.113Z,100898.93
2019-01-09T03:00:12.047Z,100895.45
2019-01-09T03:00:48.834Z,100893.49
2019-01-09T03:01:28.516Z,100895.05
2019-01-09T03:02:05.704Z,100901.47
2019-01-09T03:02:42.820Z,100895.44
2019-01-09T03:03:19.125Z,100900.19
2019-01-09T03:03:56.213Z,100902.53
2019-01-09T03:04:32.911Z,100904.86
2019-01-09T03:05:09.605Z,100901.84
2019-01-09T03:05:46.718Z,100907.77
2019-01-09T03:06:25.527Z,100906.73
2019-01-09T03:07:01.799Z,100910.09
2019-01-09T03:07:38.905Z,100903.25
2019-01-09T03:08:15.270Z,100906.16
2019-01-09T03:08:51.532Z,100904.80
2019-01-09T03:09:28.813Z,100904.77
2019-01-09T03:10:05.833Z,100908.66
2019-01-09T03:10:42.914Z,100911.12
2019-01-09T03:11:19.541Z,100906.31
2019-01-09T03:11:56.868Z,100905.32
2019-01-09T03:12:34.011Z,100901.50
2019-01-09T03:13:10.297Z,100899.96
2019-01-09T03:13:47.363Z,100898.58
2019-01-09T03:14:24.193Z,100902.27
2019-01-09T03:15:00.746Z,100898.63
2019-01-09T03:15:38.629Z,100895.86
2019-01-09T03:16:15.769Z,100897.83
2019-01-09T03:16:52.907Z,100897.21
2019-01-09T03:17:29.185Z,100886.23
2019-01-09T03:18:06.171Z,100890.23
2019-01-09T03:18:43.588Z,100895.56
2019-01-09T03:19:20.118Z,100890.81
2019-01-09T03:19:57.189Z,100884.20
2019-01-09T03:20:33.510Z,100886.85
2019-01-09T03:21:10.230Z,100885.19
2019-01-09T03:21:47.208Z,100885.33
2019-01-09T03:22:23.496Z,100883.30
2019-01-09T03:23:00.101Z,100878.19
2019-01-09T03:23:38.162Z,100884.77
2019-01-09T03:24:15.206Z,100879.59
2019-01-09T03:24:52.310Z,100883.45
2019-01-09T03:25:28.831Z,100882.58
2019-01-09T03:26:05.906Z,100885.43
2019-01-09T03:26:42.115Z,100880.00
2019-01-09T03:27:18.633Z,100884.70
2019-01-09T03:27:54.948Z,100881.22
2019-01-09T03:28:31.724Z,100879.44
2019-01-09T03:29:09.128Z,100880.90
2019-01-09T03:29:45.361Z,100879.55
2019-01-09T03:30:21.972Z,100881.22
2019-01-09T03:30:58.350Z,100887.80
2019-01-09T03:31:34.646Z,100880.92
2019-01-09T03:32:11.050Z,100885.20
2019-01-09T03:32:48.276Z,100878.41
2019-01-09T03:33:24.551Z,100876.42
2019-01-09T03:34:00.902Z,100880.94
2019-01-09T03:34:37.749Z,100878.15
2019-01-09T03:35:14.164Z,100879.36
2019-01-09T03:35:50.673Z,100877.77
2019-01-09T03:36:32.674Z,100886.64
2019-01-09T03:37:04.956Z,100883.80
2019-01-09T03:37:42.120Z,100882.85
2019-01-09T03:38:19.188Z,100888.45
2019-01-09T03:38:56.149Z,100883.19
2019-01-09T03:39:32.671Z,100883.42
2019-01-09T03:40:10.340Z,100887.50
2019-01-09T03:40:47.302Z,100881.11
2019-01-09T03:41:24.299Z,100892.95
2019-01-09T03:42:01.167Z,100889.39
2019-01-09T03:42:38.837Z,100885.47
2019-01-09T03:43:16.134Z,100886.03
2019-01-09T03:43:52.510Z,100882.19
2019-01-09T03:44:29.431Z,100888.59
2019-01-09T03:45:05.919Z,100883.80
2019-01-09T03:45:42.486Z,100884.98
2019-01-09T03:46:18.681Z,100883.23
2019-01-09T03:46:55.161Z,100874.03
2019-01-09T03:47:32.707Z,100876.83
2019-01-09T03:48:09.639Z,100879.23
2019-01-09T03:48:46.760Z,100879.31
2019-01-09T03:49:24.187Z,100874.95
2019-01-09T03:50:01.297Z,100877.83
2019-01-09T03:50:37.675Z,100876.23
2019-01-09T03:51:14.064Z,100873.35
2019-01-09T03:51:51.247Z,100873.59
2019-01-09T03:52:28.286Z,100875.94
2019-01-09T03:53:05.494Z,100879.19
2019-01-09T03:53:42.103Z,100882.79
2019-01-09T03:54:18.361Z,100880.87
2019-01-09T03:54:55.068Z,100883.86
2019-01-09T03:55:32.002Z,100878.02
2019-01-09T03:56:09.035Z,100875.78
2019-01-09T03:56:45.431Z,100872.42
2019-01-09T03:57:22.496Z,100875.62
2019-01-09T03:58:02.757Z,100880.81
2019-01-09T03:58:41.941Z,100881.22
2019-01-09T03:59:19.670Z,100875.44
2019-01-09T03:59:56.268Z,100878.79
2019-01-09T04:00:32.867Z,100882.79
2019-01-09T04:01:09.901Z,100879.67
2019-01-09T04:01:46.069Z,100882.79
2019-01-09T04:02:23.104Z,100879.59
2019-01-09T04:02:59.851Z,100870.31
2019-01-09T04:03:37.048Z,100876.36
2019-01-09T04:04:13.367Z,100870.92
2019-01-09T04:04:50.316Z,100879.43
2019-01-09T04:05:26.721Z,100876.71
2019-01-09T04:06:03.644Z,100876.39
2019-01-09T04:06:42.068Z,100873.99
2019-01-09T04:07:18.524Z,100872.88
2019-01-09T04:07:55.078Z,100872.52
2019-01-09T04:08:31.918Z,100872.39
2019-01-09T04:09:08.423Z,100875.75
2019-01-09T04:09:45.249Z,100877.52
2019-01-09T04:10:22.354Z,100872.39
2019-01-09T04:10:59.083Z,100867.35
2019-01-09T04:11:35.509Z,100867.48
2019-01-09T04:12:12.515Z,100870.36
2019-01-09T04:12:48.832Z,100866.92
2019-01-09T04:13:25.211Z,100866.84
2019-01-09T04:14:02.199Z,100864.77
2019-01-09T04:14:38.485Z,100863.27
2019-01-09T04:15:15.362Z,100864.47
2019-01-09T04:15:52.604Z,100863.52
2019-01-09T04:16:29.683Z,100858.75
2019-01-09T04:17:07.035Z,100869.46
2019-01-09T04:17:43.469Z,100869.22
2019-01-09T04:18:20.733Z,100868.17
2019-01-09T04:18:57.064Z,100872.81
2019-01-09T04:19:34.974Z,100870.73
2019-01-09T04:20:12.099Z,100867.96
2019-01-09T04:20:48.661Z,100872.28
2019-01-09T04:21:25.419Z,100868.44
2019-01-09T04:22:02.669Z,100870.12
2019-01-09T04:22:40.205Z,100867.69
2019-01-09T04:23:17.052Z,100866.52
2019-01-09T04:23:53.502Z,100865.95
2019-01-09T04:24:30.515Z,100869.38
2019-01-09T04:25:06.666Z,100867.96
2019-01-09T04:25:43.613Z,100870.49
2019-01-09T04:26:19.882Z,100868.89
2019-01-09T04:26:56.171Z,100865.86
2019-01-09T04:27:32.612Z,100863.30
2019-01-09T04:28:09.220Z,100861.06
2019-01-09T04:28:45.701Z,100866.34
2019-01-09T04:29:23.925Z,100864.81
2019-01-09T04:30:00.462Z,100871.13
2019-01-09T04:30:36.900Z,100871.30
2019-01-09T04:31:14.321Z,100874.09
2019-01-09T04:31:50.666Z,100865.70
2019-01-09T04:32:27.056Z,100865.06
2019-01-09T04:33:03.878Z,100869.38
2019-01-09T04:33:41.033Z,100873.54
2019-01-09T04:34:17.227Z,100873.62
2019-01-09T04:34:54.245Z,100875.30
2019-01-09T04:35:31.120Z,100877.30
2019-01-09T04:36:07.313Z,100880.25
2019-01-09T04:36:51.394Z,100871.61
2019-01-09T04:37:21.563Z,100872.09
2019-01-09T04:37:58.647Z,100875.80
2019-01-09T04:38:35.729Z,100879.80
2019-01-09T04:39:12.814Z,100882.52
2019-01-09T04:39:49.164Z,100884.27
2019-01-09T04:40:26.101Z,100879.95
2019-01-09T04:41:02.983Z,100878.19
2019-01-09T04:41:39.348Z,100878.98
2019-01-09T04:42:15.680Z,100879.31
2019-01-09T04:42:53.613Z,100876.59
2019-01-09T04:43:31.053Z,100876.11
2019-01-09T04:44:07.665Z,100874.58
2019-01-09T04:44:43.979Z,100873.14
2019-01-09T04:45:20.901Z,100870.50
2019-01-09T04:45:57.750Z,100869.23
2019-01-09T04:46:34.343Z,100875.56
2019-01-09T04:47:10.847Z,100868.77
2019-01-09T04:47:47.561Z,100870.92
2019-01-09T04:48:24.648Z,100864.82
2019-01-09T04:49:01.707Z,100864.11
2019-01-09T04:49:38.253Z,100862.20
2019-01-09T04:50:14.632Z,100858.66
2019-01-09T04:50:51.213Z,100866.81
2019-01-09T04:51:28.270Z,100865.85
2019-01-09T04:52:05.257Z,100863.80
2019-01-09T04:52:42.486Z,100863.30
2019-01-09T04:53:19.148Z,100868.35
2019-01-09T04:53:55.926Z,100866.18
2019-01-09T04:54:33.086Z,100862.81
2019-01-09T04:55:09.452Z,100858.73
2019-01-09T04:55:46.452Z,100862.81
2019-01-09T04:56:23.086Z,100861.88
2019-01-09T04:56:59.384Z,100856.86
2019-01-09T04:57:36.348Z,100857.72
2019-01-09T04:58:12.716Z,100855.95
2019-01-09T04:58:49.226Z,100864.27
2019-01-09T04:59:25.596Z,100866.81
2019-01-09T05:00:02.229Z,100861.92
2019-01-09T05:00:39.041Z,100858.82
2019-01-09T05:01:16.024Z,100863.05
2019-01-09T05:01:52.419Z,100857.55
2019-01-09T05:02:28.906Z,100866.19
2019-01-09T05:03:05.875Z,100862.34
2019-01-09T05:03:42.732Z,100856.66
2019-01-09T05:04:19.107Z,100863.05
2019-01-09T05:04:55.942Z,100863.47
2019-01-09T05:05:32.148Z,100865.54
2019-01-09T05:06:08.773Z,100871.28
2019-01-09T05:06:45.609Z,100867.61
2019-01-09T05:07:22.135Z,100869.03
2019-01-09T05:07:58.762Z,100864.77
2019-01-09T05:08:35.292Z,100864.44
2019-01-09T05:09:11.657Z,100859.53
2019-01-09T05:09:48.067Z,100852.86
2019-01-09T05:10:24.658Z,100853.01
2019-01-09T05:11:01.446Z,100858.13
2019-01-09T05:11:38.490Z,100855.55
2019-01-09T05:12:15.433Z,100861.00
2019-01-09T05:12:51.699Z,100854.52
2019-01-09T05:13:28.688Z,100850.90
2019-01-09T05:14:05.411Z,100852.17
2019-01-09T05:14:41.709Z,100852.31
2019-01-09T05:15:18.429Z,100849.82
2019-01-09T05:15:55.589Z,100855.50
2019-01-09T05:16:32.372Z,100846.94
2019-01-09T05:17:09.070Z,100848.45
2019-01-09T05:17:45.407Z,100844.03
2019-01-09T05:18:22.250Z,100848.72
2019-01-09T05:18:59.221Z,100843.65
2019-01-09T05:19:35.827Z,100847.97
2019-01-09T05:20:12.043Z,100843.16
2019-01-09T05:20:49.115Z,100840.37
2019-01-09T05:21:25.531Z,100836.52
2019-01-09T05:22:02.681Z,100838.83
2019-01-09T05:22:42.083Z,100838.27
2019-01-09T05:23:18.988Z,100828.97
2019-01-09T05:23:56.003Z,100828.97
2019-01-09T05:24:33.131Z,100833.31
2019-01-09T05:25:10.655Z,100826.23
2019-01-09T05:25:47.622Z,100831.22
2019-01-09T05:26:24.136Z,100823.28
2019-01-09T05:27:01.604Z,100823.91
2019-01-09T05:27:38.529Z,100813.81
2019-01-09T05:28:14.981Z,100820.39
2019-01-09T05:28:51.556Z,100815.03
2019-01-09T05:29:28.527Z,100822.08
2019-01-09T05:30:05.470Z,100815.37
2019-01-09T05:30:42.570Z,100817.06
2019-01-09T05:31:19.761Z,100813.16
2019-01-09T05:31:56.595Z,100814.30
2019-01-09T05:32:33.429Z,100810.63
2019-01-09T05:33:10.195Z,100815.84
2019-01-09T05:33:47.023Z,100813.05
2019-01-09T05:34:23.410Z,100806.98
2019-01-09T05:35:00.365Z,100805.02
2019-01-09T05:35:37.388Z,100806.80
2019-01-09T05:36:13.554Z,100803.98
2019-01-09T05:36:49.979Z,100800.94
2019-01-09T05:37:26.828Z,100802.53
2019-01-09T05:38:03.244Z,100799.01
2019-01-09T05:38:40.188Z,100800.04
2019-01-09T05:39:17.015Z,100798.91
2019-01-09T05:39:53.410Z,100800.98
2019-01-09T05:40:29.796Z,100795.72
2019-01-09T05:41:06.299Z,100798.67
2019-01-09T05:41:42.731Z,100796.42
2019-01-09T05:42:19.669Z,100796.42
2019-01-09T05:42:56.030Z,100802.06
2019-01-09T05:43:32.535Z,100800.70
2019-01-09T05:44:09.728Z,100802.53
2019-01-09T05:44:46.723Z,100795.25
2019-01-09T05:45:23.641Z,100800.94
2019-01-09T05:45:59.857Z,100801.12
2019-01-09T05:46:36.245Z,100798.86
2019-01-09T05:47:12.798Z,100799.76
2019-01-09T05:47:49.940Z,100800.80
2019-01-09T05:48:26.294Z,100795.02
2019-01-09T05:49:03.282Z,100797.73
2019-01-09T05:49:40.100Z,100795.48
2019-01-09T05:50:17.217Z,100792.05
2019-01-09T05:50:54.987Z,100792.48
2019-01-09T05:51:31.186Z,100793.64
2019-01-09T05:52:08.414Z,100789.41
2019-01-09T05:52:47.741Z,100787.16
2019-01-09T05:53:23.992Z,100784.44
2019-01-09T05:54:00.175Z,100786.03
2019-01-09T05:54:39.366Z,100780.79
2019-01-09T05:55:16.202Z,100773.22
2019-01-09T05:55:52.645Z,100774.92
2019-01-09T05:56:29.465Z,100774.12
2019-01-09T05:57:05.809Z,100771.30
2019-01-09T05:57:41.982Z,100767.59
2019-01-09T05:58:18.839Z,100770.13
2019-01-09T05:58:55.532Z,100765.84
2019-01-09T05:59:32.426Z,100762.65
2019-01-09T06:00:09.288Z,100763.62
2019-01-09T06:00:45.657Z,100769.53
2019-01-09T06:01:22.773Z,100766.94
2019-01-09T06:01:59.777Z,100766.91
2019-01-09T06:02:36.068Z,100769.89
2019-01-09T06:03:12.823Z,100765.80
2019-01-09T06:03:49.529Z,100763.78
2019-01-09T06:04:26.035Z,100763.78
2019-01-09T06:05:03.039Z,100759.93
2019-01-09T06:05:40.045Z,100758.56
2019-01-09T06:06:16.337Z,100762.41
2019-01-09T06:06:52.928Z,100756.50
2019-01-09T06:07:29.819Z,100754.24
2019-01-09T06:08:06.262Z,100758.33
2019-01-09T06:08:43.367Z,100756.64
2019-01-09T06:09:20.184Z,100753.11
2019-01-09T06:09:56.432Z,100749.92
2019-01-09T06:10:33.131Z,100749.03
2019-01-09T06:11:10.065Z,100748.66
2019-01-09T06:11:46.913Z,100752.19
2019-01-09T06:12:23.282Z,100742.41
2019-01-09T06:13:00.374Z,100740.02
2019-01-09T06:13:36.584Z,100745.33
2019-01-09T06:14:13.132Z,100749.14
2019-01-09T06:14:50.151Z,100748.80
2019-01-09T06:15:26.332Z,100743.59
2019-01-09T06:16:03.388Z,100741.95
2019-01-09T06:16:40.517Z,100741.52
2019-01-09T06:17:16.684Z,100740.00
2019-01-09T06:17:53.070Z,100743.46
2019-01-09T06:18:29.415Z,100736.23
2019-01-09T06:19:05.784Z,100737.36
2019-01-09T06:19:43.403Z,100733.03
2019-01-09T06:20:20.249Z,100732.84
2019-01-09T06:20:56.654Z,100729.45
2019-01-09T06:21:32.931Z,100729.03
2019-01-09T06:22:10.130Z,100727.47
2019-01-09T06:22:46.336Z,100727.30
2019-01-09T06:23:23.292Z,100728.23
2019-01-09T06:23:59.616Z,100725.41
2019-01-09T06:24:35.899Z,100723.72
2019-01-09T06:25:13.160Z,100724.41
2019-01-09T06:25:49.829Z,100720.99
2019-01-09T06:26:26.039Z,100724.25
2019-01-09T06:27:03.412Z,100719.06
2019-01-09T06:27:40.829Z,100717.66
2019-01-09T06:28:17.218Z,100712.98
2019-01-09T06:28:54.436Z,100715.56
2019-01-09T06:29:31.800Z,100716.23
2019-01-09T06:30:10.028Z,100720.95
2019-01-09T06:30:46.479Z,100715.09
2019-01-09T06:31:23.298Z,100711.91
2019-01-09T06:31:59.707Z,100705.29
2019-01-09T06:32:36.160Z,100709.47
2019-01-09T06:33:13.239Z,100705.80
2019-01-09T06:33:49.610Z,100698.53
2019-01-09T06:34:26.368Z,100704.38
2019-01-09T06:35:03.688Z,100701.74
2019-01-09T06:35:40.540Z,100700.14
2019-01-09T06:36:16.931Z,100694.56
2019-01-09T06:36:53.710Z,100694.09
2019-01-09T06:37:30.535Z,100693.39
2019-01-09T06:38:06.998Z,100687.56
2019-01-09T06:38:44.271Z,100690.91
2019-01-09T06:39:20.887Z,100685.17
2019-01-09T06:39:57.673Z,100680.44
2019-01-09T06:40:34.028Z,100685.41
2019-01-09T06:41:11.374Z,100686.30
2019-01-09T06:41:48.787Z,100683.25
2019-01-09T06:42:25.991Z,100681.33
2019-01-09T06:43:03.051Z,100679.41
2019-01-09T06:43:39.366Z,100679.08
2019-01-09T06:44:16.347Z,100678.42
2019-01-09T06:44:53.544Z,100677.39
2019-01-09T06:45:32.436Z,100680.02
2019-01-09T06:46:09.590Z,100679.36
2019-01-09T06:46:46.344Z,100676.30
2019-01-09T06:47:23.522Z,100671.89
2019-01-09T06:47:59.863Z,100670.44
2019-01-09T06:48:36.469Z,100671.47
2019-01-09T06:49:13.037Z,100670.02
2019-01-09T06:49:49.345Z,100665.86
2019-01-09T06:50:26.054Z,100666.33
2019-01-09T06:51:02.247Z,100665.44
2019-01-09T06:51:38.588Z,100668.86
2019-01-09T06:52:14.889Z,100664.78
2019-01-09T06:52:52.137Z,100662.16
2019-01-09T06:53:29.449Z,100660.70
2019-01-09T06:54:05.651Z,100665.02
2019-01-09T06:54:42.775Z,100656.84
2019-01-09T06:55:19.554Z,100652.20
2019-01-09T06:55:56.670Z,100658.67
2019-01-09T06:56:34.030Z,100656.42
2019-01-09T06:57:11.885Z,100653.36
2019-01-09T06:57:48.256Z,100650.31
2019-01-09T06:58:24.482Z,100651.01
2019-01-09T06:59:03.091Z,100647.65
2019-01-09T06:59:40.031Z,100645.09
2019-01-09T07:00:16.465Z,100645.23
2019-01-09T07:00:52.684Z,100641.84
2019-01-09T07:01:29.043Z,100639.81
2019-01-09T07:02:07.817Z,100635.52
2019-01-09T07:02:44.792Z,100634.05
2019-01-09T07:03:21.909Z,100634.78
2019-01-09T07:03:59.459Z,100635.34
2019-01-09T07:04:36.511Z,100632.42
2019-01-09T07:05:13.747Z,100635.52
2019-01-09T07:05:49.886Z,100633.92
2019-01-09T07:06:26.238Z,100626.19
2019-01-09T07:07:03.348Z,100629.78
2019-01-09T07:07:39.727Z,100634.77
2019-01-09T07:08:15.963Z,100630.25
2019-01-09T07:08:52.865Z,100629.66
2019-01-09T07:09:29.337Z,100629.42
2019-01-09T07:10:05.790Z,100625.11
2019-01-09T07:10:42.167Z,100624.31
2019-01-09T07:11:18.953Z,100628.53
2019-01-09T07:11:55.980Z,100628.16
2019-01-09T07:12:32.228Z,100626.00
2019-01-09T07:13:08.820Z,100626.47
2019-01-09T07:13:45.514Z,100624.31
2019-01-09T07:14:21.724Z,100617.60
2019-01-09T07:14:59.194Z,100617.33
2019-01-09T07:15:36.176Z,100622.71
2019-01-09T07:16:12.427Z,100616.77
2019-01-09T07:16:48.706Z,100618.03
2019-01-09T07:17:25.586Z,100615.55
2019-01-09T07:18:02.188Z,100616.47
2019-01-09T07:18:39.214Z,100614.22
2019-01-09T07:19:16.009Z,100611.03
2019-01-09T07:19:52.329Z,100610.83
2019-01-09T07:20:28.928Z,100605.38
2019-01-09T07:21:06.500Z,100601.20
2019-01-09T07:21:45.612Z,100608.57
2019-01-09T07:22:21.140Z,100602.72
2019-01-09T07:22:57.866Z,100604.81
2019-01-09T07:23:34.781Z,100603.58
2019-01-09T07:24:11.644Z,100602.45
2019-01-09T07:24:48.742Z,100599.63
2019-01-09T07:25:25.734Z,100595.20
2019-01-09T07:26:03.278Z,100599.85
2019-01-09T07:26:40.128Z,100592.58
2019-01-09T07:27:16.400Z,100591.69
2019-01-09T07:27:52.722Z,100592.94
2019-01-09T07:28:29.575Z,100584.67
2019-01-09T07:29:06.454Z,100584.90
2019-01-09T07:29:42.762Z,100585.57
2019-01-09T07:30:19.633Z,100581.81
2019-01-09T07:30:55.968Z,100580.79
2019-01-09T07:31:32.309Z,100580.77
2019-01-09T07:32:09.394Z,100572.27
2019-01-09T07:32:48.486Z,100572.23
2019-01-09T07:33:25.473Z,100573.17
2019-01-09T07:34:01.679Z,100572.37
2019-01-09T07:34:38.723Z,100578.82
2019-01-09T07:35:15.947Z,100571.78
2019-01-09T07:35:52.435Z,100575.97
2019-01-09T07:36:28.841Z,100571.75
2019-01-09T07:37:06.987Z,100564.48
2019-01-09T07:37:45.286Z,100567.67
2019-01-09T07:38:23.938Z,100562.69
2019-01-09T07:39:00.743Z,100559.97
2019-01-09T07:39:38.011Z,100563.81
2019-01-09T07:40:16.495Z,100560.40
2019-01-09T07:40:52.795Z,100554.63
2019-01-09T07:41:29.736Z,100562.02
2019-01-09T07:42:06.760Z,100564.41
2019-01-09T07:42:43.910Z,100562.15
2019-01-09T07:43:20.435Z,100563.41
2019-01-09T07:43:56.836Z,100562.52
2019-01-09T07:44:33.106Z,100556.43
2019-01-09T07:45:11.204Z,100564.20